createdAt,value
2023-03-18T00:00:46.850Z,98069.97
2023-03-18T00:03:14.698Z,98088.84
2023-03-18T00:05:42.922Z,98088.97
2023-03-18T00:08:10.980Z,98085.75
2023-03-18T00:10:39.732Z,98091.47
2023-03-18T00:13:07.686Z,98104.34
2023-03-18T00:15:37.743Z,98123.22
2023-03-18T00:18:06.543Z,98140.41
2023-03-18T00:20:39.425Z,98130.03
2023-03-18T00:23:08.774Z,98141.25
2023-03-18T00:25:37.119Z,98154.03
2023-03-18T00:28:06.566Z,98150.25
2023-03-18T00:30:38.563Z,98153.19
2023-03-18T00:33:07.107Z,98172.44
2023-03-18T00:35:36.362Z,98165.25
2023-03-18T00:38:07.671Z,98170.50
2023-03-18T00:40:53.225Z,98178.19
2023-03-18T00:43:22.708Z,98169.56
2023-03-18T00:45:51.913Z,98167.06
2023-03-18T00:48:19.708Z,98159.41
2023-03-18T00:50:47.891Z,98140.41
2023-03-18T00:53:15.689Z,98151.66
2023-03-18T00:55:44.199Z,98165.50
2023-03-18T00:58:12.736Z,98169.81
2023-03-18T01:00:41.644Z,98134.72
2023-03-18T01:03:10.844Z,98130.16
2023-03-18T01:05:39.709Z,98138.75
2023-03-18T01:08:07.893Z,98161.22
2023-03-18T01:10:35.740Z,98169.81
2023-03-18T01:13:03.514Z,98148.19
2023-03-18T01:15:31.382Z,98149.28
2023-03-18T01:17:59.693Z,98160.25
2023-03-18T01:20:29.380Z,98167.19
2023-03-18T01:22:58.583Z,98163.00
2023-03-18T01:25:27.291Z,98137.22
2023-03-18T01:27:55.684Z,98146.53
2023-03-18T01:30:24.648Z,98137.09
2023-03-18T01:32:52.585Z,98139.59
2023-03-18T01:35:20.557Z,98123.34
2023-03-18T01:37:49.733Z,98137.09
2023-03-18T01:40:18.098Z,98153.44
2023-03-18T01:42:49.731Z,98150.81
2023-03-18T01:45:21.873Z,98151.66
2023-03-18T01:47:50.826Z,98156.22
2023-03-18T01:50:21.945Z,98135.69
2023-03-18T01:52:55.556Z,98160.38
2023-03-18T01:55:26.887Z,98147.63
2023-03-18T01:57:55.627Z,98152.75
2023-03-18T02:00:23.647Z,98146.66
2023-03-18T02:02:53.672Z,98153.44
2023-03-18T02:07:53.724Z,98130.69
2023-03-18T02:10:24.125Z,98150.13
2023-03-18T02:12:58.133Z,98137.09
2023-03-18T02:15:27.806Z,98128.50
2023-03-18T02:18:00.047Z,98107.97
2023-03-18T02:20:46.349Z,98117.53
2023-03-18T02:23:23.583Z,98080.72
2023-03-18T02:25:57.343Z,98044.44
2023-03-18T02:28:29.577Z,98014.63
2023-03-18T02:31:01.373Z,97980.25
2023-03-18T02:33:34.743Z,97903.88
2023-03-18T02:36:05.986Z,97868.16
2023-03-18T02:38:34.182Z,97821.59
2023-03-18T02:41:02.075Z,97779.53
2023-03-18T02:43:33.636Z,97747.16
2023-03-18T02:46:18.448Z,97723.88
2023-03-18T02:48:47.722Z,97692.19
2023-03-18T02:51:17.195Z,97695.91
2023-03-18T02:53:45.944Z,97687.22
2023-03-18T02:56:14.043Z,97674.34
2023-03-18T02:58:44.217Z,97683.75
2023-03-18T03:01:12.532Z,97662.19
2023-03-18T03:03:41.067Z,97652.06
2023-03-18T03:06:09.672Z,97637.69
2023-03-18T03:08:37.848Z,97655.53
2023-03-18T03:11:06.422Z,97651.25
2023-03-18T03:13:34.141Z,97646.97
2023-03-18T03:16:03.871Z,97638.38
2023-03-18T03:18:31.697Z,97640.88
2023-03-18T03:20:59.696Z,97634.78
2023-03-18T03:23:27.955Z,97644.34
2023-03-18T03:25:56.210Z,97652.22
2023-03-18T03:28:24.246Z,97646.13
2023-03-18T03:30:52.294Z,97645.31
2023-03-18T03:33:21.783Z,97631.47
2023-03-18T03:35:49.615Z,97633.28
2023-03-18T03:38:17.582Z,97629.81
2023-03-18T03:40:45.745Z,97608.06
2023-03-18T03:43:14.029Z,97619.53
2023-03-18T03:45:42.059Z,97620.38
2023-03-18T03:48:10.544Z,97629.81
2023-03-18T03:50:40.410Z,97588.16
2023-03-18T03:53:08.155Z,97601.44
2023-03-18T03:55:35.997Z,97611.94
2023-03-18T03:58:04.437Z,97606.00
2023-03-18T04:00:33.237Z,97605.16
2023-03-18T04:03:01.354Z,97600.75
2023-03-18T04:05:29.654Z,97606.00
2023-03-18T04:07:59.989Z,97601.72
2023-03-18T04:10:29.102Z,97592.72
2023-03-18T04:12:56.930Z,97603.25
2023-03-18T04:15:24.627Z,97611.94
2023-03-18T04:17:52.367Z,97621.34
2023-03-18T04:20:20.896Z,97603.50
2023-03-18T04:22:49.279Z,97612.78
2023-03-18T04:25:18.770Z,97624.81
2023-03-18T04:27:46.746Z,97598.25
2023-03-18T04:30:15.335Z,97578.63
2023-03-18T04:32:43.235Z,97615.66
2023-03-18T04:35:11.900Z,97611.94
2023-03-18T04:37:39.622Z,97611.25
2023-03-18T04:40:09.020Z,97621.34
2023-03-18T04:42:38.568Z,97614.56
2023-03-18T04:45:08.139Z,97606.00
2023-03-18T04:47:36.046Z,97639.47
2023-03-18T04:50:04.627Z,97636.72
2023-03-18T04:52:33.672Z,97638.63
2023-03-18T04:55:01.693Z,97637.69
2023-03-18T04:57:29.654Z,97618.84
2023-03-18T04:59:59.121Z,97599.91
2023-03-18T05:02:26.891Z,97631.97
2023-03-18T05:04:54.647Z,97615.38
2023-03-18T05:07:22.659Z,97622.72
2023-03-18T05:09:50.570Z,97626.59
2023-03-18T05:12:18.365Z,97638.53
2023-03-18T05:14:46.372Z,97646.25
2023-03-18T05:17:16.874Z,97627.97
2023-03-18T05:19:46.496Z,97658.56
2023-03-18T05:22:16.442Z,97662.72
2023-03-18T05:24:46.042Z,97633.38
2023-03-18T05:27:14.866Z,97627.56
2023-03-18T05:29:43.313Z,97628.41
2023-03-18T05:32:12.696Z,97627.56
2023-03-18T05:34:42.971Z,97630.06
2023-03-18T05:37:13.212Z,97656.78
2023-03-18T05:39:43.718Z,97671.28
2023-03-18T05:42:14.202Z,97680.84
2023-03-18T05:44:42.160Z,97686.78
2023-03-18T05:47:10.381Z,97671.28
2023-03-18T05:49:38.400Z,97681.53
2023-03-18T05:52:07.613Z,97693.56
2023-03-18T05:54:35.476Z,97686.78
2023-03-18T05:57:03.230Z,97669.63
2023-03-18T05:59:31.552Z,97693.69
2023-03-18T06:01:59.470Z,97708.22
2023-03-18T06:04:27.828Z,97713.34
2023-03-18T06:06:57.002Z,97711.53
2023-03-18T06:09:27.355Z,97726.34
2023-03-18T06:11:55.247Z,97715.13
2023-03-18T06:14:25.929Z,97739.06
2023-03-18T06:16:54.268Z,97694.88
2023-03-18T06:19:22.974Z,97736.56
2023-03-18T06:21:50.946Z,97734.09
2023-03-18T06:24:18.806Z,97724.69
2023-03-18T06:26:47.865Z,97733.97
2023-03-18T06:29:15.622Z,97730.63
2023-03-18T06:31:43.440Z,97748.47
2023-03-18T06:34:11.219Z,97765.63
2023-03-18T06:36:38.973Z,97758.84
2023-03-18T06:39:06.811Z,97736.56
2023-03-18T06:41:34.951Z,97706.84
2023-03-18T06:44:04.169Z,97726.34
2023-03-18T06:46:32.309Z,97712.78
2023-03-18T06:49:01.553Z,97724.69
2023-03-18T06:51:29.378Z,97726.59
2023-03-18T06:53:58.018Z,97719.44
2023-03-18T06:56:25.773Z,97716.09
2023-03-18T06:58:54.353Z,97734.22
2023-03-18T07:01:23.597Z,97743.50
2023-03-18T07:03:51.581Z,97750.41
2023-03-18T07:06:19.786Z,97763.41
2023-03-18T07:08:47.627Z,97767.56
2023-03-18T07:11:16.710Z,97751.38
2023-03-18T07:13:44.728Z,97728.84
2023-03-18T07:16:12.638Z,97716.09
2023-03-18T07:18:42.715Z,97716.38
2023-03-18T07:21:11.394Z,97697.69
2023-03-18T07:23:41.150Z,97711.13
2023-03-18T07:26:09.012Z,97718.03
2023-03-18T07:28:36.858Z,97710.03
2023-03-18T07:31:04.836Z,97731.59
2023-03-18T07:33:33.222Z,97757.19
2023-03-18T07:36:02.634Z,97755.66
2023-03-18T07:38:30.945Z,97778.91
2023-03-18T07:40:58.658Z,97773.53
2023-03-18T07:43:27.315Z,97808.84
2023-03-18T07:45:55.840Z,97796.66
2023-03-18T07:48:23.571Z,97784.97
2023-03-18T07:50:51.471Z,97800.25
2023-03-18T07:53:21.134Z,97801.91
2023-03-18T07:55:49.140Z,97782.38
2023-03-18T07:58:16.920Z,97744.69
2023-03-18T08:00:45.153Z,97813.53
2023-03-18T08:03:13.983Z,97821.00
2023-03-18T08:05:42.143Z,97814.09
2023-03-18T08:08:10.087Z,97833.75
2023-03-18T08:10:39.309Z,97832.22
2023-03-18T08:13:07.137Z,97832.94
2023-03-18T08:15:35.319Z,97844.13
2023-03-18T08:18:03.253Z,97850.09
2023-03-18T08:20:31.087Z,97862.97
2023-03-18T08:22:59.177Z,97857.97
2023-03-18T08:25:27.106Z,97882.75
2023-03-18T08:27:56.652Z,97884.44
2023-03-18T08:30:28.538Z,97870.03
2023-03-18T08:32:57.414Z,97879.44
2023-03-18T08:35:25.805Z,97881.78
2023-03-18T08:37:54.426Z,97883.59
2023-03-18T08:40:22.267Z,97888.03
2023-03-18T08:42:50.105Z,97866.44
2023-03-18T08:45:19.562Z,97859.91
2023-03-18T08:47:47.409Z,97872.50
2023-03-18T08:50:15.622Z,97882.75
2023-03-18T08:52:43.421Z,97917.13
2023-03-18T08:55:11.604Z,97938.47
2023-03-18T08:57:39.755Z,97960.06
2023-03-18T09:00:09.059Z,97966.72
2023-03-18T09:02:38.311Z,97970.31
2023-03-18T09:05:07.072Z,97973.34
2023-03-18T09:07:35.314Z,97996.22
2023-03-18T09:10:04.412Z,97998.72
2023-03-18T09:12:32.199Z,98003.84
2023-03-18T09:15:00.005Z,98019.13
2023-03-18T09:17:45.280Z,98037.16
2023-03-18T09:20:18.418Z,98035.50
2023-03-18T09:22:46.935Z,98036.59
2023-03-18T09:25:14.818Z,98043.38
2023-03-18T09:27:43.904Z,98042.69
2023-03-18T09:30:12.871Z,98058.78
2023-03-18T09:32:41.172Z,98075.13
2023-03-18T09:35:12.535Z,98101.75
2023-03-18T09:37:42.222Z,98080.38
2023-03-18T09:40:26.477Z,98128.38
2023-03-18T09:43:03.711Z,98134.47
2023-03-18T09:45:36.428Z,98166.13
2023-03-18T09:48:30.839Z,98200.38
2023-03-18T09:51:06.062Z,98190.13
2023-03-18T09:53:44.452Z,98191.91
2023-03-18T09:56:18.032Z,98189.28
2023-03-18T09:58:51.186Z,98175.56
2023-03-18T10:01:21.850Z,98176.38
2023-03-18T10:03:54.624Z,98166.13
2023-03-18T10:06:24.831Z,98176.38
2023-03-18T10:09:02.451Z,98205.78
2023-03-18T10:11:33.189Z,98246.88
2023-03-18T10:14:21.181Z,98250.72
2023-03-18T10:16:59.436Z,98247.69
2023-03-18T10:19:28.184Z,98249.63
2023-03-18T10:22:07.876Z,98228.00
2023-03-18T10:24:40.590Z,98230.19
2023-03-18T10:27:17.983Z,98232.41
2023-03-18T10:29:51.088Z,98235.75
2023-03-18T10:32:46.529Z,98235.44
2023-03-18T10:35:27.281Z,98234.09
2023-03-18T10:38:03.122Z,98217.97
2023-03-18T10:40:38.719Z,98194.56
2023-03-18T10:43:16.884Z,98265.16
2023-03-18T10:45:47.106Z,98291.84
2023-03-18T10:48:21.391Z,98302.25
2023-03-18T10:51:07.547Z,98309.06
2023-03-18T10:53:43.052Z,98273.44
2023-03-18T10:56:14.597Z,98273.19
2023-03-18T10:58:43.710Z,98262.78
2023-03-18T11:01:17.194Z,98243.78
2023-03-18T11:03:50.784Z,98227.53
2023-03-18T11:06:25.236Z,98231.00
2023-03-18T11:09:04.864Z,98231.84
2023-03-18T11:11:36.125Z,98250.72
2023-03-18T11:14:14.225Z,98313.47
2023-03-18T11:16:49.538Z,98357.34
2023-03-18T11:19:29.002Z,98417.78
2023-03-18T11:22:15.402Z,98408.19
2023-03-18T11:24:43.812Z,98410.72
2023-03-18T11:27:29.063Z,98393.50
2023-03-18T11:30:00.106Z,98360.81
2023-03-18T11:32:31.153Z,98337.06
2023-03-18T11:35:01.750Z,98334.16
2023-03-18T11:37:34.773Z,98385.09
2023-03-18T11:40:18.680Z,98376.50
2023-03-18T11:42:49.554Z,98413.47
2023-03-18T11:45:32.958Z,98436.53
2023-03-18T11:48:01.674Z,98488.22
2023-03-18T11:50:39.508Z,98460.72
2023-03-18T11:53:14.834Z,98438.72
2023-03-18T11:55:46.738Z,98445.41
2023-03-18T11:58:42.480Z,98433.72
2023-03-18T12:01:17.601Z,98478.06
2023-03-18T12:03:57.604Z,98490.03
2023-03-18T12:06:28.665Z,98488.84
2023-03-18T12:09:05.013Z,98478.44
2023-03-18T12:11:55.205Z,98465.28
2023-03-18T12:14:32.640Z,98470.41
2023-03-18T12:17:14.584Z,98427.59
2023-03-18T12:20:02.882Z,98395.91
2023-03-18T12:22:47.855Z,98408.69
2023-03-18T12:25:31.509Z,98374.25
2023-03-18T12:28:04.387Z,98357.88
2023-03-18T12:30:50.847Z,98370.78
2023-03-18T12:33:35.382Z,98339.81
2023-03-18T12:36:15.113Z,98346.63
2023-03-18T12:39:07.724Z,98340.91
2023-03-18T12:41:45.544Z,98362.16
2023-03-18T12:44:29.049Z,98344.25
2023-03-18T12:47:06.653Z,98339.94
2023-03-18T12:49:38.832Z,98344.25
2023-03-18T12:52:10.624Z,98358.81
2023-03-18T12:54:44.293Z,98367.44
2023-03-18T12:57:19.068Z,98319.25
2023-03-18T12:59:56.711Z,98354.66
2023-03-18T13:02:41.250Z,98370.06
2023-03-18T13:05:24.578Z,98313.38
2023-03-18T13:08:06.461Z,98313.38
2023-03-18T13:10:37.595Z,98333.97
2023-03-18T13:13:10.421Z,98321.19
2023-03-18T13:15:42.740Z,98312.56
2023-03-18T13:18:20.183Z,98303.72
2023-03-18T13:20:50.205Z,98294.63
2023-03-18T13:23:31.222Z,98283.41
2023-03-18T13:26:09.755Z,98255.09
2023-03-18T13:28:51.200Z,98244.81
2023-03-18T13:31:31.286Z,98200.94
2023-03-18T13:34:26.338Z,98211.13
2023-03-18T13:37:08.500Z,98232.63
2023-03-18T13:39:47.703Z,98232.88
2023-03-18T13:42:26.510Z,98230.25
2023-03-18T13:45:01.527Z,98220.69
2023-03-18T13:47:33.045Z,98227.63
2023-03-18T13:50:04.847Z,98168.88
2023-03-18T13:52:42.005Z,98181.50
2023-03-18T13:55:23.642Z,98162.66
2023-03-18T13:57:57.938Z,98182.91
2023-03-18T14:00:34.413Z,98193.44
2023-03-18T14:03:06.979Z,98194.41
2023-03-18T14:05:40.472Z,98229.53
2023-03-18T14:08:47.384Z,98252.72
2023-03-18T14:11:50.040Z,98256.88
2023-03-18T14:15:06.070Z,98300.72
2023-03-18T14:17:46.084Z,98309.47
2023-03-18T14:20:27.261Z,98275.06
2023-03-18T14:23:17.448Z,98265.88
2023-03-18T14:25:49.396Z,98252.72
2023-03-18T14:28:24.839Z,98214.00
2023-03-18T14:31:15.030Z,98176.25
2023-03-18T14:33:59.593Z,98064.00
2023-03-18T14:36:49.159Z,98080.25
2023-03-18T14:39:22.033Z,98092.19
2023-03-18T14:41:54.583Z,98083.59
2023-03-18T14:44:25.275Z,98073.31
2023-03-18T14:46:58.228Z,98078.59
2023-03-18T14:49:41.657Z,98054.72
2023-03-18T14:52:28.782Z,98080.25
2023-03-18T14:55:00.092Z,98070.00
2023-03-18T14:57:28.477Z,98064.88
2023-03-18T14:59:57.018Z,98045.88
2023-03-18T15:02:28.723Z,98041.84
2023-03-18T15:04:59.342Z,98060.69
2023-03-18T15:07:35.362Z,98068.31
2023-03-18T15:10:12.382Z,98048.63
2023-03-18T15:12:40.478Z,98056.41
2023-03-18T15:15:14.789Z,98019.66
2023-03-18T15:17:47.608Z,98027.28
2023-03-18T15:20:16.559Z,97982.91
2023-03-18T15:22:44.968Z,98017.03
2023-03-18T15:25:19.425Z,98008.53
2023-03-18T15:27:48.220Z,97989.97
2023-03-18T15:30:27.646Z,98000.91
2023-03-18T15:33:04.127Z,98009.38
2023-03-18T15:35:32.908Z,98015.38
2023-03-18T15:38:14.629Z,97963.81
2023-03-18T15:40:50.963Z,98011.06
2023-03-18T15:43:26.987Z,97998.69
2023-03-18T15:45:57.762Z,98001.75
2023-03-18T15:48:31.951Z,98008.69
2023-03-18T15:51:01.971Z,98012.00
2023-03-18T15:53:34.585Z,97985.41
2023-03-18T15:56:16.323Z,97994.84
2023-03-18T15:58:45.104Z,97969.06
2023-03-18T16:01:17.563Z,97985.28
2023-03-18T16:03:47.472Z,97973.50
2023-03-18T16:06:16.289Z,98000.91
2023-03-18T16:08:46.009Z,98006.75
2023-03-18T16:11:16.991Z,97993.16
2023-03-18T16:13:46.892Z,97949.66
2023-03-18T16:16:18.577Z,97976.00
2023-03-18T16:18:46.715Z,97970.72
2023-03-18T16:21:15.310Z,97942.59
2023-03-18T16:23:43.384Z,97969.59
2023-03-18T16:26:17.879Z,97975.16
2023-03-18T16:28:48.331Z,97935.94
2023-03-18T16:31:16.375Z,97925.31
2023-03-18T16:33:46.332Z,97971.81
2023-03-18T16:36:24.880Z,97946.06
2023-03-18T16:38:52.873Z,97954.78
2023-03-18T16:41:22.012Z,97954.78
2023-03-18T16:43:50.310Z,97957.41
2023-03-18T16:46:19.220Z,97941.19
2023-03-18T16:48:49.316Z,97953.94
2023-03-18T16:51:17.514Z,97927.34
2023-03-18T16:53:45.257Z,97873.19
2023-03-18T16:56:19.007Z,97858.78
2023-03-18T16:58:48.316Z,97849.38
2023-03-18T17:01:19.348Z,97857.97
2023-03-18T17:03:48.153Z,97910.16
2023-03-18T17:06:16.260Z,97948.81
2023-03-18T17:08:44.612Z,97924.72
2023-03-18T17:11:19.266Z,97922.38
2023-03-18T17:13:48.735Z,97914.56
2023-03-18T17:16:19.979Z,97904.47
2023-03-18T17:18:48.174Z,97893.13
2023-03-18T17:21:17.111Z,97860.59
2023-03-18T17:23:45.706Z,97863.22
2023-03-18T17:26:16.023Z,97851.03
2023-03-18T17:28:46.881Z,97836.75
2023-03-18T17:31:16.689Z,97850.47
2023-03-18T17:33:47.370Z,97873.84
2023-03-18T17:36:15.188Z,97879.53
2023-03-18T17:38:43.024Z,97851.31
2023-03-18T17:41:17.286Z,97845.34
2023-03-18T17:43:45.152Z,97811.72
2023-03-18T17:46:14.214Z,97825.56
2023-03-18T17:48:44.040Z,97840.09
2023-03-18T17:51:16.266Z,97824.88
2023-03-18T17:53:46.179Z,97795.50
2023-03-18T17:56:16.186Z,97774.19
2023-03-18T17:58:45.649Z,97748.84
2023-03-18T18:01:16.389Z,97748.97
2023-03-18T18:03:45.567Z,97783.72
2023-03-18T18:06:18.595Z,97774.31
2023-03-18T18:08:46.997Z,97764.78
2023-03-18T18:11:20.938Z,97757.16
2023-03-18T18:13:49.893Z,97767.66
2023-03-18T18:16:18.766Z,97757.16
2023-03-18T18:18:49.875Z,97736.69
2023-03-18T18:21:21.747Z,97740.84
2023-03-18T18:23:49.801Z,97757.28
2023-03-18T18:26:19.598Z,97771.00
2023-03-18T18:28:49.449Z,97745.25
2023-03-18T18:31:19.427Z,97737.53
2023-03-18T18:33:50.464Z,97741.69
2023-03-18T18:36:18.668Z,97784.56
2023-03-18T18:38:46.819Z,97761.59
2023-03-18T18:41:15.295Z,97775.97
2023-03-18T18:43:43.118Z,97775.97
2023-03-18T18:46:14.759Z,97795.06
2023-03-18T18:48:44.612Z,97843.69
2023-03-18T18:51:18.305Z,97832.03
2023-03-18T18:53:47.542Z,97889.22
2023-03-18T18:56:18.614Z,97855.03
2023-03-18T18:58:47.139Z,97810.81
2023-03-18T19:01:16.115Z,97821.53
2023-03-18T19:03:44.208Z,97828.31
2023-03-18T19:06:25.246Z,97815.56
2023-03-18T19:08:54.628Z,97803.66
2023-03-18T19:11:24.575Z,97784.81
2023-03-18T19:13:53.753Z,97782.19
2023-03-18T19:16:29.481Z,97771.13
2023-03-18T19:18:57.377Z,97807.94
2023-03-18T19:21:27.168Z,97796.84
2023-03-18T19:23:55.178Z,97779.56
2023-03-18T19:26:23.145Z,97778.75
2023-03-18T19:29:01.338Z,97798.53
2023-03-18T19:31:32.223Z,97773.88
2023-03-18T19:34:02.131Z,97762.69
2023-03-18T19:36:33.319Z,97731.84
2023-03-18T19:39:03.054Z,97743.88
2023-03-18T19:41:31.305Z,97779.84
2023-03-18T19:44:04.073Z,97787.31
2023-03-18T19:46:37.162Z,97807.22
2023-03-18T19:49:12.921Z,97776.25
2023-03-18T19:51:42.497Z,97799.47
2023-03-18T19:54:23.698Z,97808.91
2023-03-18T19:56:52.504Z,97820.81
2023-03-18T19:59:23.224Z,97822.72
2023-03-18T20:01:51.907Z,97821.63
2023-03-18T20:04:21.564Z,97786.47
2023-03-18T20:06:51.218Z,97766.28
2023-03-18T20:09:19.192Z,97796.16
2023-03-18T20:11:50.678Z,97783.16
2023-03-18T20:14:25.512Z,97799.63
2023-03-18T20:16:53.864Z,97784.53
2023-03-18T20:19:21.777Z,97763.78
2023-03-18T20:21:51.024Z,97760.19
2023-03-18T20:24:24.444Z,97743.88
2023-03-18T20:26:52.334Z,97757.69
2023-03-18T20:29:24.058Z,97748.28
2023-03-18T20:31:52.026Z,97724.44
2023-03-18T20:34:19.921Z,97721.69
2023-03-18T20:36:47.785Z,97715.75
2023-03-18T20:39:21.623Z,97703.47
2023-03-18T20:41:50.541Z,97694.56
2023-03-18T20:44:18.307Z,97666.94
2023-03-18T20:46:46.193Z,97702.88
2023-03-18T20:49:14.139Z,97770.44
2023-03-18T20:51:42.520Z,97776.50
2023-03-18T20:54:19.740Z,97756.88
2023-03-18T20:56:48.026Z,97759.50
2023-03-18T20:59:16.070Z,97792.00
2023-03-18T21:01:44.353Z,97816.06
2023-03-18T21:04:13.869Z,97800.31
2023-03-18T21:06:42.238Z,97779.84
2023-03-18T21:09:12.310Z,97773.19
2023-03-18T21:11:41.724Z,97756.03
2023-03-18T21:14:15.711Z,97739.84
2023-03-18T21:16:43.663Z,97759.63
2023-03-18T21:19:12.608Z,97757.81
2023-03-18T21:21:41.207Z,97737.44
2023-03-18T21:24:23.649Z,97721.13
2023-03-18T21:27:03.710Z,97731.22
2023-03-18T21:29:32.356Z,97713.38
2023-03-18T21:32:02.520Z,97698.88
2023-03-18T21:34:30.509Z,97668.72
2023-03-18T21:36:58.479Z,97663.63
2023-03-18T21:39:26.415Z,97666.94
2023-03-18T21:41:55.656Z,97666.94
2023-03-18T21:44:23.410Z,97660.28
2023-03-18T21:46:51.107Z,97654.22
2023-03-18T21:49:18.946Z,97686.00
2023-03-18T21:51:46.736Z,97716.16
2023-03-18T21:54:18.752Z,97696.78
2023-03-18T21:56:46.626Z,97700.53
2023-03-18T21:59:15.960Z,97677.44
2023-03-18T22:01:43.868Z,97677.44
2023-03-18T22:04:12.515Z,97659.47
2023-03-18T22:06:40.316Z,97661.25
2023-03-18T22:09:08.722Z,97643.16
2023-03-18T22:11:36.547Z,97639.69
2023-03-18T22:14:04.286Z,97644.13
2023-03-18T22:16:33.400Z,97640.66
2023-03-18T22:19:01.449Z,97629.59
2023-03-18T22:21:29.421Z,97626.25
2023-03-18T22:23:58.239Z,97621.00
2023-03-18T22:26:26.130Z,97633.97
2023-03-18T22:28:53.964Z,97620.16
2023-03-18T22:31:24.444Z,97621.97
2023-03-18T22:33:54.497Z,97610.91
2023-03-18T22:36:23.767Z,97615.06
2023-03-18T22:38:51.826Z,97595.28
2023-03-18T22:41:22.057Z,97581.75
2023-03-18T22:43:50.489Z,97591.13
2023-03-18T22:46:19.096Z,97588.66
2023-03-18T22:48:47.040Z,97566.25
2023-03-18T22:51:23.551Z,97566.53
2023-03-18T22:53:53.631Z,97580.91
2023-03-18T22:56:22.750Z,97588.66
2023-03-18T22:58:51.352Z,97594.84
2023-03-18T23:01:21.691Z,97604.94
2023-03-18T23:03:50.546Z,97598.88
2023-03-18T23:06:23.702Z,97587.81
2023-03-18T23:08:51.635Z,97591.97
2023-03-18T23:11:19.819Z,97595.56
2023-03-18T23:13:49.886Z,97592.94
2023-03-18T23:16:21.037Z,97579.50
2023-03-18T23:18:49.371Z,97581.03
2023-03-18T23:21:21.168Z,97567.22
2023-03-18T23:23:49.232Z,97585.31
2023-03-18T23:26:17.876Z,97575.94
2023-03-18T23:28:46.083Z,97607.72
2023-03-18T23:31:14.995Z,97608.41
2023-03-18T23:33:43.354Z,97581.03
2023-03-18T23:36:12.256Z,97573.44
2023-03-18T23:38:41.848Z,97545.13
2023-03-18T23:41:10.171Z,97552.03
2023-03-18T23:43:38.028Z,97545.13
2023-03-18T23:46:07.463Z,97539.69
2023-03-18T23:48:35.824Z,97549.41
2023-03-18T23:51:03.556Z,97554.91
2023-03-18T23:53:31.407Z,97549.41
2023-03-18T23:56:00.659Z,97553.81
2023-03-18T23:58:28.496Z,97574.28
